sensor_id;sensor_type;location;lat;lon;timestamp;P1;durP1;ratioP1;P2;durP2;ratioP2
31730;SDS011;18310;55.586;12.286;2022-10-22T00:03:01;18.25;;;13.18;;
31730;SDS011;18310;55.586;12.286;2022-10-22T00:06:05;24.00;;;13.47;;
31730;SDS011;18310;55.586;12.286;2022-10-22T00:09:08;21.48;;;13.32;;
31730;SDS011;18310;55.586;12.286;2022-10-22T00:12:12;20.37;;;13.93;;
31730;SDS011;18310;55.586;12.286;2022-10-22T00:15:17;18.98;;;13.18;;
31730;SDS011;18310;55.586;12.286;2022-10-22T00:18:20;21.08;;;13.85;;
31730;SDS011;18310;55.586;12.286;2022-10-22T00:21:24;22.00;;;12.90;;
31730;SDS011;18310;55.586;12.286;2022-10-22T00:24:29;19.33;;;12.50;;
31730;SDS011;18310;55.586;12.286;2022-10-22T00:27:32;16.25;;;12.07;;
31730;SDS011;18310;55.586;12.286;2022-10-22T00:30:37;24.45;;;13.48;;
31730;SDS011;18310;55.586;12.286;2022-10-22T00:33:40;22.88;;;13.02;;
31730;SDS011;18310;55.586;12.286;2022-10-22T00:36:43;21.02;;;13.05;;
31730;SDS011;18310;55.586;12.286;2022-10-22T00:39:46;21.87;;;12.80;;
31730;SDS011;18310;55.586;12.286;2022-10-22T00:42:49;18.90;;;12.18;;
31730;SDS011;18310;55.586;12.286;2022-10-22T00:45:54;19.57;;;13.00;;
31730;SDS011;18310;55.586;12.286;2022-10-22T00:48:58;19.70;;;12.73;;
31730;SDS011;18310;55.586;12.286;2022-10-22T00:52:04;19.10;;;12.48;;
31730;SDS011;18310;55.586;12.286;2022-10-22T00:55:08;19.98;;;12.07;;
31730;SDS011;18310;55.586;12.286;2022-10-22T00:58:12;20.70;;;12.55;;
31730;SDS011;18310;55.586;12.286;2022-10-22T01:01:19;21.10;;;13.43;;
31730;SDS011;18310;55.586;12.286;2022-10-22T01:04:27;16.95;;;11.07;;
31730;SDS011;18310;55.586;12.286;2022-10-22T01:07:39;19.58;;;12.27;;
31730;SDS011;18310;55.586;12.286;2022-10-22T01:10:50;14.70;;;9.98;;
31730;SDS011;18310;55.586;12.286;2022-10-22T01:14:08;12.90;;;9.90;;
31730;SDS011;18310;55.586;12.286;2022-10-22T01:17:22;20.92;;;11.57;;
31730;SDS011;18310;55.586;12.286;2022-10-22T01:20:47;14.60;;;10.70;;
31730;SDS011;18310;55.586;12.286;2022-10-22T01:24:14;12.90;;;9.07;;
31730;SDS011;18310;55.586;12.286;2022-10-22T01:31:04;13.13;;;8.80;;
31730;SDS011;18310;55.586;12.286;2022-10-22T01:34:11;13.40;;;8.90;;
31730;SDS011;18310;55.586;12.286;2022-10-22T01:37:20;22.50;;;12.25;;
31730;SDS011;18310;55.586;12.286;2022-10-22T01:40:27;19.25;;;13.07;;
31730;SDS011;18310;55.586;12.286;2022-10-22T01:43:33;17.13;;;13.05;;
31730;SDS011;18310;55.586;12.286;2022-10-22T01:46:38;19.30;;;11.60;;
31730;SDS011;18310;55.586;12.286;2022-10-22T01:49:54;14.65;;;9.88;;
31730;SDS011;18310;55.586;12.286;2022-10-22T01:53:31;17.33;;;11.45;;
31730;SDS011;18310;55.586;12.286;2022-10-22T01:56:47;14.07;;;10.35;;
31730;SDS011;18310;55.586;12.286;2022-10-22T02:00:03;18.52;;;11.60;;
31730;SDS011;18310;55.586;12.286;2022-10-22T02:03:12;14.20;;;10.93;;
31730;SDS011;18310;55.586;12.286;2022-10-22T02:06:24;19.25;;;12.02;;
31730;SDS011;18310;55.586;12.286;2022-10-22T02:09:30;14.73;;;10.35;;
31730;SDS011;18310;55.586;12.286;2022-10-22T02:12:37;16.77;;;10.48;;
31730;SDS011;18310;55.586;12.286;2022-10-22T02:15:44;14.23;;;11.07;;
31730;SDS011;18310;55.586;12.286;2022-10-22T02:18:53;15.60;;;10.95;;
31730;SDS011;18310;55.586;12.286;2022-10-22T02:21:59;14.65;;;9.88;;
31730;SDS011;18310;55.586;12.286;2022-10-22T02:25:03;14.82;;;9.77;;
31730;SDS011;18310;55.586;12.286;2022-10-22T02:28:10;18.85;;;11.05;;
31730;SDS011;18310;55.586;12.286;2022-10-22T02:31:22;14.68;;;9.98;;
31730;SDS011;18310;55.586;12.286;2022-10-22T02:34:30;13.32;;;9.88;;
31730;SDS011;18310;55.586;12.286;2022-10-22T02:37:34;13.45;;;9.60;;
31730;SDS011;18310;55.586;12.286;2022-10-22T02:40:38;16.50;;;11.32;;
31730;SDS011;18310;55.586;12.286;2022-10-22T02:43:44;21.02;;;11.85;;
31730;SDS011;18310;55.586;12.286;2022-10-22T02:46:53;20.15;;;12.65;;
31730;SDS011;18310;55.586;12.286;2022-10-22T02:49:57;16.67;;;12.45;;
31730;SDS011;18310;55.586;12.286;2022-10-22T02:53:00;19.48;;;12.63;;
31730;SDS011;18310;55.586;12.286;2022-10-22T02:56:04;16.83;;;11.93;;
31730;SDS011;18310;55.586;12.286;2022-10-22T02:59:07;18.88;;;12.52;;
31730;SDS011;18310;55.586;12.286;2022-10-22T03:02:11;16.25;;;10.57;;
31730;SDS011;18310;55.586;12.286;2022-10-22T03:05:16;16.13;;;12.10;;
31730;SDS011;18310;55.586;12.286;2022-10-22T03:08:19;16.13;;;11.82;;
31730;SDS011;18310;55.586;12.286;2022-10-22T03:11:22;17.60;;;11.53;;
31730;SDS011;18310;55.586;12.286;2022-10-22T03:14:26;18.00;;;12.00;;
31730;SDS011;18310;55.586;12.286;2022-10-22T03:17:29;20.63;;;11.73;;
31730;SDS011;18310;55.586;12.286;2022-10-22T03:20:33;19.55;;;11.93;;
31730;SDS011;18310;55.586;12.286;2022-10-22T03:23:37;17.58;;;12.07;;
31730;SDS011;18310;55.586;12.286;2022-10-22T03:26:43;15.02;;;10.80;;
31730;SDS011;18310;55.586;12.286;2022-10-22T03:29:53;16.55;;;11.45;;
31730;SDS011;18310;55.586;12.286;2022-10-22T03:32:58;17.20;;;11.40;;
31730;SDS011;18310;55.586;12.286;2022-10-22T03:36:03;18.00;;;11.70;;
31730;SDS011;18310;55.586;12.286;2022-10-22T03:39:09;16.83;;;11.18;;
31730;SDS011;18310;55.586;12.286;2022-10-22T03:42:16;15.68;;;10.98;;
31730;SDS011;18310;55.586;12.286;2022-10-22T03:45:20;17.50;;;11.63;;
31730;SDS011;18310;55.586;12.286;2022-10-22T03:48:24;16.25;;;11.70;;
31730;SDS011;18310;55.586;12.286;2022-10-22T03:51:28;18.48;;;11.45;;
31730;SDS011;18310;55.586;12.286;2022-10-22T03:54:32;20.73;;;12.95;;
31730;SDS011;18310;55.586;12.286;2022-10-22T04:00:39;16.60;;;11.68;;
31730;SDS011;18310;55.586;12.286;2022-10-22T04:03:43;18.85;;;11.45;;
31730;SDS011;18310;55.586;12.286;2022-10-22T04:06:47;17.80;;;11.85;;
31730;SDS011;18310;55.586;12.286;2022-10-22T04:09:50;17.98;;;12.77;;
31730;SDS011;18310;55.586;12.286;2022-10-22T04:12:54;19.27;;;12.87;;
31730;SDS011;18310;55.586;12.286;2022-10-22T04:16:05;18.30;;;12.80;;
31730;SDS011;18310;55.586;12.286;2022-10-22T04:19:09;17.05;;;11.75;;
31730;SDS011;18310;55.586;12.286;2022-10-22T04:22:14;14.32;;;11.32;;
31730;SDS011;18310;55.586;12.286;2022-10-22T04:25:17;16.95;;;12.52;;
31730;SDS011;18310;55.586;12.286;2022-10-22T04:28:21;23.33;;;12.52;;
31730;SDS011;18310;55.586;12.286;2022-10-22T04:31:24;25.17;;;12.25;;
31730;SDS011;18310;55.586;12.286;2022-10-22T04:34:28;23.52;;;12.43;;
31730;SDS011;18310;55.586;12.286;2022-10-22T04:37:33;27.70;;;12.40;;
31730;SDS011;18310;55.586;12.286;2022-10-22T04:40:36;25.35;;;12.70;;
31730;SDS011;18310;55.586;12.286;2022-10-22T04:43:39;26.77;;;13.93;;
31730;SDS011;18310;55.586;12.286;2022-10-22T04:46:44;24.63;;;12.20;;
31730;SDS011;18310;55.586;12.286;2022-10-22T04:49:47;28.43;;;12.33;;
31730;SDS011;18310;55.586;12.286;2022-10-22T04:52:54;30.27;;;13.10;;
31730;SDS011;18310;55.586;12.286;2022-10-22T04:56:05;24.23;;;13.27;;
31730;SDS011;18310;55.586;12.286;2022-10-22T04:59:10;20.80;;;12.50;;
31730;SDS011;18310;55.586;12.286;2022-10-22T05:02:14;28.02;;;13.38;;
31730;SDS011;18310;55.586;12.286;2022-10-22T05:05:17;22.00;;;12.43;;
31730;SDS011;18310;55.586;12.286;2022-10-22T05:08:22;25.33;;;12.95;;
31730;SDS011;18310;55.586;12.286;2022-10-22T05:11:27;23.75;;;11.23;;
31730;SDS011;18310;55.586;12.286;2022-10-22T05:14:35;27.67;;;12.88;;
31730;SDS011;18310;55.586;12.286;2022-10-22T05:17:42;21.08;;;11.50;;
31730;SDS011;18310;55.586;12.286;2022-10-22T05:20:45;22.27;;;11.75;;
31730;SDS011;18310;55.586;12.286;2022-10-22T05:23:50;27.45;;;13.70;;
31730;SDS011;18310;55.586;12.286;2022-10-22T05:26:57;27.42;;;13.35;;
31730;SDS011;18310;55.586;12.286;2022-10-22T05:30:01;25.48;;;12.90;;
31730;SDS011;18310;55.586;12.286;2022-10-22T05:33:06;23.92;;;11.75;;
31730;SDS011;18310;55.586;12.286;2022-10-22T05:36:11;28.77;;;14.35;;
31730;SDS011;18310;55.586;12.286;2022-10-22T05:39:18;30.45;;;14.20;;
31730;SDS011;18310;55.586;12.286;2022-10-22T05:42:22;26.55;;;12.23;;
31730;SDS011;18310;55.586;12.286;2022-10-22T05:45:25;22.93;;;13.47;;
31730;SDS011;18310;55.586;12.286;2022-10-22T05:48:29;34.20;;;15.73;;
31730;SDS011;18310;55.586;12.286;2022-10-22T05:51:37;31.13;;;14.23;;
31730;SDS011;18310;55.586;12.286;2022-10-22T05:54:42;26.55;;;14.32;;
31730;SDS011;18310;55.586;12.286;2022-10-22T05:57:45;22.90;;;11.23;;
31730;SDS011;18310;55.586;12.286;2022-10-22T06:03:52;19.20;;;9.05;;
31730;SDS011;18310;55.586;12.286;2022-10-22T06:06:57;29.15;;;13.25;;
31730;SDS011;18310;55.586;12.286;2022-10-22T06:10:02;38.67;;;15.05;;
31730;SDS011;18310;55.586;12.286;2022-10-22T06:13:06;29.33;;;13.00;;
31730;SDS011;18310;55.586;12.286;2022-10-22T06:16:09;35.03;;;13.65;;
31730;SDS011;18310;55.586;12.286;2022-10-22T06:19:13;48.08;;;15.73;;
31730;SDS011;18310;55.586;12.286;2022-10-22T06:22:20;33.20;;;12.38;;
31730;SDS011;18310;55.586;12.286;2022-10-22T06:25:25;32.08;;;14.25;;
31730;SDS011;18310;55.586;12.286;2022-10-22T06:28:29;29.88;;;13.68;;
31730;SDS011;18310;55.586;12.286;2022-10-22T06:31:34;39.25;;;15.43;;
31730;SDS011;18310;55.586;12.286;2022-10-22T06:34:37;33.42;;;16.05;;
31730;SDS011;18310;55.586;12.286;2022-10-22T06:37:41;27.13;;;13.60;;
31730;SDS011;18310;55.586;12.286;2022-10-22T06:40:45;38.73;;;14.30;;
31730;SDS011;18310;55.586;12.286;2022-10-22T06:43:49;38.33;;;14.63;;
31730;SDS011;18310;55.586;12.286;2022-10-22T06:46:52;25.02;;;13.98;;
31730;SDS011;18310;55.586;12.286;2022-10-22T06:49:56;23.03;;;11.60;;
31730;SDS011;18310;55.586;12.286;2022-10-22T06:52:59;21.40;;;12.52;;
31730;SDS011;18310;55.586;12.286;2022-10-22T06:56:07;28.17;;;13.33;;
31730;SDS011;18310;55.586;12.286;2022-10-22T06:59:13;32.40;;;12.77;;
31730;SDS011;18310;55.586;12.286;2022-10-22T07:02:16;24.20;;;14.00;;
31730;SDS011;18310;55.586;12.286;2022-10-22T07:05:20;36.33;;;17.03;;
31730;SDS011;18310;55.586;12.286;2022-10-22T07:08:23;43.50;;;16.90;;
31730;SDS011;18310;55.586;12.286;2022-10-22T07:11:28;27.38;;;14.45;;
31730;SDS011;18310;55.586;12.286;2022-10-22T07:14:39;25.58;;;14.95;;
31730;SDS011;18310;55.586;12.286;2022-10-22T07:17:42;24.85;;;14.05;;
31730;SDS011;18310;55.586;12.286;2022-10-22T07:20:47;26.77;;;14.82;;
31730;SDS011;18310;55.586;12.286;2022-10-22T07:23:51;31.45;;;17.38;;
31730;SDS011;18310;55.586;12.286;2022-10-22T07:26:55;28.20;;;16.33;;
31730;SDS011;18310;55.586;12.286;2022-10-22T07:29:59;28.13;;;14.65;;
31730;SDS011;18310;55.586;12.286;2022-10-22T07:33:02;35.63;;;18.50;;
31730;SDS011;18310;55.586;12.286;2022-10-22T07:36:07;22.47;;;14.53;;
31730;SDS011;18310;55.586;12.286;2022-10-22T07:39:17;30.10;;;16.27;;
31730;SDS011;18310;55.586;12.286;2022-10-22T07:42:22;30.10;;;17.27;;
31730;SDS011;18310;55.586;12.286;2022-10-22T07:45:25;29.00;;;16.17;;
31730;SDS011;18310;55.586;12.286;2022-10-22T07:48:28;33.58;;;17.83;;
31730;SDS011;18310;55.586;12.286;2022-10-22T07:51:32;29.00;;;15.50;;
31730;SDS011;18310;55.586;12.286;2022-10-22T07:54:35;31.23;;;16.80;;
31730;SDS011;18310;55.586;12.286;2022-10-22T07:57:39;30.25;;;17.23;;
31730;SDS011;18310;55.586;12.286;2022-10-22T08:00:43;27.15;;;16.95;;
31730;SDS011;18310;55.586;12.286;2022-10-22T08:03:46;34.97;;;18.60;;
31730;SDS011;18310;55.586;12.286;2022-10-22T08:06:50;32.53;;;18.15;;
31730;SDS011;18310;55.586;12.286;2022-10-22T08:09:53;36.88;;;18.73;;
31730;SDS011;18310;55.586;12.286;2022-10-22T08:12:58;33.47;;;18.63;;
31730;SDS011;18310;55.586;12.286;2022-10-22T08:16:02;39.63;;;20.42;;
31730;SDS011;18310;55.586;12.286;2022-10-22T08:19:07;39.97;;;20.25;;
31730;SDS011;18310;55.586;12.286;2022-10-22T08:22:11;40.10;;;21.27;;
31730;SDS011;18310;55.586;12.286;2022-10-22T08:25:14;38.30;;;20.35;;
31730;SDS011;18310;55.586;12.286;2022-10-22T08:28:20;34.30;;;19.55;;
31730;SDS011;18310;55.586;12.286;2022-10-22T08:31:24;33.55;;;19.88;;
31730;SDS011;18310;55.586;12.286;2022-10-22T08:34:27;33.00;;;19.95;;
31730;SDS011;18310;55.586;12.286;2022-10-22T08:40:37;37.53;;;19.27;;
31730;SDS011;18310;55.586;12.286;2022-10-22T08:47:57;36.58;;;21.27;;
31730;SDS011;18310;55.586;12.286;2022-10-22T08:51:16;37.22;;;21.02;;
31730;SDS011;18310;55.586;12.286;2022-10-22T08:54:24;35.80;;;20.10;;
31730;SDS011;18310;55.586;12.286;2022-10-22T08:57:44;34.97;;;21.17;;
31730;SDS011;18310;55.586;12.286;2022-10-22T09:01:00;38.25;;;21.35;;
31730;SDS011;18310;55.586;12.286;2022-10-22T09:04:10;36.33;;;21.17;;
31730;SDS011;18310;55.586;12.286;2022-10-22T09:07:25;32.90;;;19.95;;
31730;SDS011;18310;55.586;12.286;2022-10-22T09:10:30;39.13;;;21.07;;
31730;SDS011;18310;55.586;12.286;2022-10-22T09:13:38;37.25;;;20.15;;
31730;SDS011;18310;55.586;12.286;2022-10-22T09:17:00;30.73;;;20.27;;
31730;SDS011;18310;55.586;12.286;2022-10-22T09:20:16;30.90;;;19.92;;
31730;SDS011;18310;55.586;12.286;2022-10-22T09:23:31;35.67;;;20.52;;
31730;SDS011;18310;55.586;12.286;2022-10-22T09:26:41;37.45;;;20.77;;
31730;SDS011;18310;55.586;12.286;2022-10-22T09:29:45;31.15;;;19.40;;
31730;SDS011;18310;55.586;12.286;2022-10-22T09:32:51;32.22;;;19.92;;
31730;SDS011;18310;55.586;12.286;2022-10-22T09:36:02;31.88;;;19.80;;
31730;SDS011;18310;55.586;12.286;2022-10-22T09:39:20;29.95;;;19.27;;
31730;SDS011;18310;55.586;12.286;2022-10-22T09:42:26;28.25;;;18.73;;
31730;SDS011;18310;55.586;12.286;2022-10-22T09:45:29;30.83;;;19.13;;
31730;SDS011;18310;55.586;12.286;2022-10-22T09:48:35;31.35;;;18.17;;
31730;SDS011;18310;55.586;12.286;2022-10-22T09:51:48;35.90;;;19.52;;
31730;SDS011;18310;55.586;12.286;2022-10-22T09:54:55;30.88;;;19.75;;
31730;SDS011;18310;55.586;12.286;2022-10-22T09:58:03;30.30;;;18.63;;
31730;SDS011;18310;55.586;12.286;2022-10-22T10:01:14;28.88;;;17.20;;
31730;SDS011;18310;55.586;12.286;2022-10-22T10:04:24;27.75;;;17.02;;
31730;SDS011;18310;55.586;12.286;2022-10-22T10:07:29;29.58;;;16.90;;
31730;SDS011;18310;55.586;12.286;2022-10-22T10:10:36;27.58;;;17.13;;
31730;SDS011;18310;55.586;12.286;2022-10-22T10:13:51;26.65;;;16.50;;
31730;SDS011;18310;55.586;12.286;2022-10-22T10:17:07;25.20;;;15.27;;
31730;SDS011;18310;55.586;12.286;2022-10-22T10:20:28;27.25;;;16.92;;
31730;SDS011;18310;55.586;12.286;2022-10-22T10:23:44;28.10;;;16.60;;
31730;SDS011;18310;55.586;12.286;2022-10-22T10:26:59;22.55;;;14.75;;
31730;SDS011;18310;55.586;12.286;2022-10-22T10:30:12;22.55;;;13.60;;
31730;SDS011;18310;55.586;12.286;2022-10-22T10:33:23;24.10;;;13.77;;
31730;SDS011;18310;55.586;12.286;2022-10-22T10:36:43;18.58;;;10.55;;
31730;SDS011;18310;55.586;12.286;2022-10-22T10:40:04;24.98;;;11.15;;
31730;SDS011;18310;55.586;12.286;2022-10-22T10:43:27;26.85;;;11.45;;
31730;SDS011;18310;55.586;12.286;2022-10-22T10:46:44;19.30;;;11.52;;
31730;SDS011;18310;55.586;12.286;2022-10-22T10:50:04;18.80;;;11.27;;
31730;SDS011;18310;55.586;12.286;2022-10-22T10:53:25;19.33;;;11.25;;
31730;SDS011;18310;55.586;12.286;2022-10-22T10:56:49;18.15;;;9.55;;
31730;SDS011;18310;55.586;12.286;2022-10-22T11:00:00;16.42;;;9.35;;
31730;SDS011;18310;55.586;12.286;2022-10-22T11:06:47;20.48;;;10.00;;
31730;SDS011;18310;55.586;12.286;2022-10-22T11:10:03;18.45;;;9.95;;
31730;SDS011;18310;55.586;12.286;2022-10-22T11:13:23;18.27;;;9.30;;
31730;SDS011;18310;55.586;12.286;2022-10-22T11:16:36;16.08;;;8.57;;
31730;SDS011;18310;55.586;12.286;2022-10-22T11:19:49;17.45;;;10.02;;
31730;SDS011;18310;55.586;12.286;2022-10-22T11:23:04;16.02;;;8.50;;
31730;SDS011;18310;55.586;12.286;2022-10-22T11:26:26;14.95;;;8.65;;
31730;SDS011;18310;55.586;12.286;2022-10-22T11:29:39;12.05;;;7.97;;
31730;SDS011;18310;55.586;12.286;2022-10-22T11:32:50;16.45;;;7.85;;
31730;SDS011;18310;55.586;12.286;2022-10-22T11:35:58;14.55;;;7.75;;
31730;SDS011;18310;55.586;12.286;2022-10-22T11:39:06;14.45;;;7.05;;
31730;SDS011;18310;55.586;12.286;2022-10-22T11:42:34;12.05;;;7.15;;
31730;SDS011;18310;55.586;12.286;2022-10-22T11:45:41;12.65;;;6.97;;
31730;SDS011;18310;55.586;12.286;2022-10-22T11:48:44;15.77;;;7.25;;
31730;SDS011;18310;55.586;12.286;2022-10-22T11:52:21;10.63;;;6.55;;
31730;SDS011;18310;55.586;12.286;2022-10-22T11:55:41;11.52;;;6.22;;
31730;SDS011;18310;55.586;12.286;2022-10-22T11:58:50;10.57;;;6.15;;
31730;SDS011;18310;55.586;12.286;2022-10-22T12:01:55;10.48;;;6.25;;
31730;SDS011;18310;55.586;12.286;2022-10-22T12:08:45;11.13;;;6.30;;
31730;SDS011;18310;55.586;12.286;2022-10-22T12:12:00;11.57;;;6.30;;
31730;SDS011;18310;55.586;12.286;2022-10-22T12:15:21;9.45;;;6.15;;
31730;SDS011;18310;55.586;12.286;2022-10-22T12:18:30;10.25;;;5.78;;
31730;SDS011;18310;55.586;12.286;2022-10-22T12:21:44;11.20;;;6.75;;
31730;SDS011;18310;55.586;12.286;2022-10-22T12:24:51;10.15;;;6.40;;
31730;SDS011;18310;55.586;12.286;2022-10-22T12:27:58;11.57;;;6.82;;
31730;SDS011;18310;55.586;12.286;2022-10-22T12:31:03;11.93;;;6.47;;
31730;SDS011;18310;55.586;12.286;2022-10-22T12:34:09;9.75;;;5.95;;
31730;SDS011;18310;55.586;12.286;2022-10-22T12:37:16;15.70;;;7.10;;
31730;SDS011;18310;55.586;12.286;2022-10-22T12:40:22;14.93;;;7.10;;
31730;SDS011;18310;55.586;12.286;2022-10-22T12:43:28;13.07;;;6.78;;
31730;SDS011;18310;55.586;12.286;2022-10-22T12:46:35;12.90;;;6.38;;
31730;SDS011;18310;55.586;12.286;2022-10-22T12:49:39;13.30;;;6.68;;
31730;SDS011;18310;55.586;12.286;2022-10-22T12:52:49;13.35;;;7.15;;
31730;SDS011;18310;55.586;12.286;2022-10-22T12:55:56;12.63;;;6.68;;
31730;SDS011;18310;55.586;12.286;2022-10-22T12:59:04;10.38;;;6.10;;
31730;SDS011;18310;55.586;12.286;2022-10-22T13:02:19;12.85;;;6.22;;
31730;SDS011;18310;55.586;12.286;2022-10-22T13:05:25;11.23;;;6.35;;
31730;SDS011;18310;55.586;12.286;2022-10-22T13:08:39;10.98;;;6.32;;
31730;SDS011;18310;55.586;12.286;2022-10-22T13:11:48;15.07;;;7.57;;
31730;SDS011;18310;55.586;12.286;2022-10-22T13:14:55;14.10;;;6.95;;
31730;SDS011;18310;55.586;12.286;2022-10-22T13:18:20;15.15;;;7.78;;
31730;SDS011;18310;55.586;12.286;2022-10-22T13:21:28;16.77;;;7.43;;
31730;SDS011;18310;55.586;12.286;2022-10-22T13:24:47;16.42;;;7.38;;
31730;SDS011;18310;55.586;12.286;2022-10-22T13:27:52;13.20;;;7.60;;
31730;SDS011;18310;55.586;12.286;2022-10-22T13:30:58;14.45;;;8.23;;
31730;SDS011;18310;55.586;12.286;2022-10-22T13:34:05;15.40;;;7.35;;
31730;SDS011;18310;55.586;12.286;2022-10-22T13:37:17;15.85;;;8.85;;
31730;SDS011;18310;55.586;12.286;2022-10-22T13:40:20;19.20;;;10.70;;
31730;SDS011;18310;55.586;12.286;2022-10-22T13:43:24;18.20;;;11.50;;
31730;SDS011;18310;55.586;12.286;2022-10-22T13:46:27;16.98;;;9.82;;
31730;SDS011;18310;55.586;12.286;2022-10-22T13:49:32;18.45;;;10.65;;
31730;SDS011;18310;55.586;12.286;2022-10-22T13:52:37;16.75;;;9.98;;
31730;SDS011;18310;55.586;12.286;2022-10-22T13:55:44;18.95;;;12.07;;
31730;SDS011;18310;55.586;12.286;2022-10-22T13:58:47;22.92;;;11.88;;
31730;SDS011;18310;55.586;12.286;2022-10-22T14:01:51;21.67;;;12.52;;
31730;SDS011;18310;55.586;12.286;2022-10-22T14:04:57;18.65;;;11.63;;
31730;SDS011;18310;55.586;12.286;2022-10-22T14:08:04;18.75;;;10.93;;
31730;SDS011;18310;55.586;12.286;2022-10-22T14:11:14;20.02;;;11.43;;
31730;SDS011;18310;55.586;12.286;2022-10-22T14:17:30;19.00;;;11.38;;
31730;SDS011;18310;55.586;12.286;2022-10-22T14:20:36;20.25;;;11.77;;
31730;SDS011;18310;55.586;12.286;2022-10-22T14:23:44;20.00;;;12.43;;
31730;SDS011;18310;55.586;12.286;2022-10-22T14:26:53;22.38;;;12.27;;
31730;SDS011;18310;55.586;12.286;2022-10-22T14:30:04;24.45;;;13.02;;
31730;SDS011;18310;55.586;12.286;2022-10-22T14:33:12;22.08;;;12.02;;
31730;SDS011;18310;55.586;12.286;2022-10-22T14:36:37;18.05;;;12.02;;
31730;SDS011;18310;55.586;12.286;2022-10-22T14:39:43;17.98;;;11.15;;
31730;SDS011;18310;55.586;12.286;2022-10-22T14:42:52;18.08;;;10.23;;
31730;SDS011;18310;55.586;12.286;2022-10-22T14:45:55;19.20;;;11.40;;
31730;SDS011;18310;55.586;12.286;2022-10-22T14:48:59;20.90;;;11.82;;
31730;SDS011;18310;55.586;12.286;2022-10-22T14:52:04;20.70;;;12.57;;
31730;SDS011;18310;55.586;12.286;2022-10-22T14:55:12;18.48;;;11.48;;
31730;SDS011;18310;55.586;12.286;2022-10-22T14:58:18;25.98;;;11.70;;
31730;SDS011;18310;55.586;12.286;2022-10-22T15:01:21;18.23;;;10.57;;
31730;SDS011;18310;55.586;12.286;2022-10-22T15:04:25;18.33;;;11.07;;
31730;SDS011;18310;55.586;12.286;2022-10-22T15:07:29;18.88;;;11.60;;
31730;SDS011;18310;55.586;12.286;2022-10-22T15:10:33;17.00;;;9.80;;
31730;SDS011;18310;55.586;12.286;2022-10-22T15:13:36;16.85;;;10.65;;
31730;SDS011;18310;55.586;12.286;2022-10-22T15:16:41;18.55;;;11.07;;
31730;SDS011;18310;55.586;12.286;2022-10-22T15:19:44;20.00;;;11.93;;
31730;SDS011;18310;55.586;12.286;2022-10-22T15:22:49;21.80;;;12.77;;
31730;SDS011;18310;55.586;12.286;2022-10-22T15:25:52;15.50;;;10.55;;
31730;SDS011;18310;55.586;12.286;2022-10-22T15:28:56;18.25;;;9.30;;
31730;SDS011;18310;55.586;12.286;2022-10-22T15:32:02;16.75;;;9.68;;
31730;SDS011;18310;55.586;12.286;2022-10-22T15:35:12;19.27;;;11.68;;
31730;SDS011;18310;55.586;12.286;2022-10-22T15:38:18;23.90;;;13.03;;
31730;SDS011;18310;55.586;12.286;2022-10-22T15:41:31;21.33;;;12.60;;
31730;SDS011;18310;55.586;12.286;2022-10-22T15:44:36;23.08;;;12.13;;
31730;SDS011;18310;55.586;12.286;2022-10-22T15:47:43;21.42;;;13.00;;
31730;SDS011;18310;55.586;12.286;2022-10-22T15:50:54;26.15;;;14.50;;
31730;SDS011;18310;55.586;12.286;2022-10-22T15:54:01;22.50;;;14.43;;
31730;SDS011;18310;55.586;12.286;2022-10-22T15:57:10;29.20;;;14.80;;
31730;SDS011;18310;55.586;12.286;2022-10-22T16:00:21;27.47;;;14.53;;
31730;SDS011;18310;55.586;12.286;2022-10-22T16:03:33;25.13;;;13.15;;
31730;SDS011;18310;55.586;12.286;2022-10-22T16:06:41;22.27;;;14.00;;
31730;SDS011;18310;55.586;12.286;2022-10-22T16:10:16;21.45;;;11.55;;
31730;SDS011;18310;55.586;12.286;2022-10-22T16:13:32;26.20;;;14.15;;
31730;SDS011;18310;55.586;12.286;2022-10-22T16:16:41;32.97;;;18.35;;
31730;SDS011;18310;55.586;12.286;2022-10-22T16:19:46;23.00;;;16.17;;
31730;SDS011;18310;55.586;12.286;2022-10-22T16:22:49;29.20;;;16.50;;
31730;SDS011;18310;55.586;12.286;2022-10-22T16:25:56;26.70;;;15.07;;
31730;SDS011;18310;55.586;12.286;2022-10-22T16:29:04;22.42;;;13.25;;
31730;SDS011;18310;55.586;12.286;2022-10-22T16:32:10;18.90;;;12.80;;
31730;SDS011;18310;55.586;12.286;2022-10-22T16:35:20;26.05;;;16.60;;
31730;SDS011;18310;55.586;12.286;2022-10-22T16:38:24;37.47;;;21.20;;
31730;SDS011;18310;55.586;12.286;2022-10-22T16:41:30;35.00;;;21.27;;
31730;SDS011;18310;55.586;12.286;2022-10-22T16:44:36;31.73;;;19.20;;
31730;SDS011;18310;55.586;12.286;2022-10-22T16:47:39;29.42;;;16.98;;
31730;SDS011;18310;55.586;12.286;2022-10-22T16:53:47;17.52;;;11.77;;
31730;SDS011;18310;55.586;12.286;2022-10-22T16:56:54;25.45;;;13.65;;
31730;SDS011;18310;55.586;12.286;2022-10-22T16:59:57;24.00;;;13.68;;
31730;SDS011;18310;55.586;12.286;2022-10-22T17:03:01;22.60;;;11.90;;
31730;SDS011;18310;55.586;12.286;2022-10-22T17:06:19;26.13;;;12.77;;
31730;SDS011;18310;55.586;12.286;2022-10-22T17:09:23;19.95;;;11.88;;
31730;SDS011;18310;55.586;12.286;2022-10-22T17:12:27;18.40;;;11.68;;
31730;SDS011;18310;55.586;12.286;2022-10-22T17:15:35;16.08;;;10.85;;
31730;SDS011;18310;55.586;12.286;2022-10-22T17:18:39;19.80;;;11.23;;
31730;SDS011;18310;55.586;12.286;2022-10-22T17:21:46;19.95;;;11.20;;
31730;SDS011;18310;55.586;12.286;2022-10-22T17:25:03;20.42;;;12.75;;
31730;SDS011;18310;55.586;12.286;2022-10-22T17:28:14;20.05;;;12.45;;
31730;SDS011;18310;55.586;12.286;2022-10-22T17:31:19;19.13;;;11.43;;
31730;SDS011;18310;55.586;12.286;2022-10-22T17:34:25;23.52;;;11.30;;
31730;SDS011;18310;55.586;12.286;2022-10-22T17:37:30;19.20;;;11.75;;
31730;SDS011;18310;55.586;12.286;2022-10-22T17:40:34;21.00;;;11.95;;
31730;SDS011;18310;55.586;12.286;2022-10-22T17:43:40;21.33;;;11.52;;
31730;SDS011;18310;55.586;12.286;2022-10-22T17:46:43;19.98;;;11.48;;
31730;SDS011;18310;55.586;12.286;2022-10-22T17:49:49;25.25;;;13.30;;
31730;SDS011;18310;55.586;12.286;2022-10-22T17:52:53;26.50;;;14.30;;
31730;SDS011;18310;55.586;12.286;2022-10-22T17:55:57;22.00;;;13.05;;
31730;SDS011;18310;55.586;12.286;2022-10-22T17:59:07;25.48;;;12.98;;
31730;SDS011;18310;55.586;12.286;2022-10-22T18:02:15;26.55;;;12.32;;
31730;SDS011;18310;55.586;12.286;2022-10-22T18:05:19;24.15;;;12.15;;
31730;SDS011;18310;55.586;12.286;2022-10-22T18:11:28;14.10;;;8.32;;
31730;SDS011;18310;55.586;12.286;2022-10-22T18:14:34;17.45;;;9.10;;
31730;SDS011;18310;55.586;12.286;2022-10-22T18:17:40;19.85;;;9.43;;
31730;SDS011;18310;55.586;12.286;2022-10-22T18:20:46;17.60;;;9.95;;
31730;SDS011;18310;55.586;12.286;2022-10-22T18:23:50;17.90;;;10.25;;
31730;SDS011;18310;55.586;12.286;2022-10-22T18:26:54;18.23;;;10.70;;
31730;SDS011;18310;55.586;12.286;2022-10-22T18:29:58;17.13;;;9.90;;
31730;SDS011;18310;55.586;12.286;2022-10-22T18:33:01;16.05;;;10.30;;
31730;SDS011;18310;55.586;12.286;2022-10-22T18:36:05;18.20;;;9.93;;
31730;SDS011;18310;55.586;12.286;2022-10-22T18:39:13;15.85;;;10.82;;